createdAt,value
2017-12-05T00:05:29.879Z,2.98
2017-12-05T00:15:06.660Z,2.98
2017-12-05T00:24:42.890Z,2.98
2017-12-05T00:34:19.382Z,2.98
2017-12-05T00:43:56.003Z,2.98
2017-12-05T00:53:31.787Z,2.98
2017-12-05T01:03:09.285Z,2.98
2017-12-05T01:12:45.498Z,2.98
2017-12-05T01:22:22.068Z,2.98
2017-12-05T01:31:58.462Z,2.98
2017-12-05T01:41:34.633Z,2.98
2017-12-05T01:51:11.226Z,2.98
2017-12-05T02:00:47.891Z,2.98
2017-12-05T02:10:24.504Z,2.98
2017-12-05T02:20:00.644Z,2.98
2017-12-05T02:29:37.736Z,2.98
2017-12-05T02:39:15.053Z,2.98
2017-12-05T02:48:51.613Z,2.98
2017-12-05T02:58:28.131Z,2.98
2017-12-05T03:08:04.286Z,2.98
2017-12-05T03:17:40.775Z,2.98
2017-12-05T03:27:16.730Z,2.98
2017-12-05T03:36:54.691Z,2.98
2017-12-05T03:46:31.124Z,2.98
2017-12-05T03:56:07.602Z,2.98
2017-12-05T04:05:44.424Z,2.98
2017-12-05T04:15:21.097Z,2.98
2017-12-05T04:24:57.687Z,2.98
2017-12-05T04:34:33.732Z,2.98
2017-12-05T04:44:10.298Z,2.98
2017-12-05T04:53:45.975Z,2.98
2017-12-05T05:03:22.297Z,2.98
2017-12-05T05:12:59.072Z,2.97
2017-12-05T05:22:36.130Z,2.97
2017-12-05T05:32:11.802Z,2.97
2017-12-05T05:41:47.857Z,2.97
2017-12-05T06:02:03.742Z,2.96
2017-12-05T06:11:40.862Z,2.96
2017-12-05T06:21:17.359Z,2.97
2017-12-05T06:30:53.605Z,2.97
2017-12-05T06:40:30.923Z,2.98
2017-12-05T06:50:07.205Z,2.98
2017-12-05T06:59:43.233Z,2.98
2017-12-05T07:09:20.393Z,2.99
2017-12-05T07:18:56.899Z,3.01
2017-12-05T07:28:33.692Z,3.01
2017-12-05T07:38:09.975Z,3.02
2017-12-05T07:47:46.548Z,3.01
2017-12-05T07:57:24.136Z,3.02
2017-12-05T08:07:00.488Z,3.02
2017-12-05T08:16:36.865Z,3.02
2017-12-05T08:26:12.963Z,3.03
2017-12-05T08:35:50.216Z,3.03
2017-12-05T08:45:27.304Z,3.03
2017-12-05T08:55:03.531Z,3.03
2017-12-05T09:04:41.042Z,3.04
2017-12-05T09:14:17.325Z,3.04
2017-12-05T09:23:54.323Z,3.04
2017-12-05T09:33:32.248Z,3.05
2017-12-05T09:43:09.413Z,3.05
2017-12-05T09:52:45.862Z,3.05
2017-12-05T10:02:22.545Z,3.05
2017-12-05T10:11:59.176Z,3.05
2017-12-05T10:21:35.777Z,3.06
2017-12-05T10:31:12.781Z,3.06
2017-12-05T10:40:48.281Z,3.06
2017-12-05T10:50:25.633Z,3.06
2017-12-05T11:00:01.573Z,3.08
2017-12-05T11:09:41.885Z,3.06
2017-12-05T11:19:11.838Z,3.08
2017-12-05T11:28:48.235Z,3.08
2017-12-05T11:38:24.770Z,3.07
2017-12-05T11:48:00.416Z,3.06
2017-12-05T11:57:35.562Z,3.06
2017-12-05T12:07:10.578Z,3.06
2017-12-05T12:16:48.201Z,3.06
2017-12-05T12:26:26.193Z,3.08
2017-12-05T12:36:05.703Z,3.09
2017-12-05T12:45:42.830Z,3.09
2017-12-05T12:55:18.106Z,3.07
2017-12-05T13:04:54.898Z,3.08
2017-12-05T13:14:31.325Z,3.12
2017-12-05T13:24:07.422Z,3.13
2017-12-05T13:33:43.229Z,3.11
2017-12-05T13:43:17.396Z,3.07
2017-12-05T13:52:51.822Z,3.08
2017-12-05T14:02:27.711Z,3.07
2017-12-05T14:12:03.157Z,3.08
2017-12-05T14:21:38.895Z,3.07
2017-12-05T14:31:14.368Z,3.08
2017-12-05T14:40:50.083Z,3.08
2017-12-05T14:50:25.720Z,3.07
2017-12-05T15:00:01.129Z,3.07
2017-12-05T15:09:36.535Z,3.06
2017-12-05T15:19:11.462Z,3.05
2017-12-05T15:28:47.621Z,3.05
2017-12-05T15:38:23.871Z,2.94
2017-12-05T15:47:59.011Z,3.05
2017-12-05T15:57:34.242Z,3.05
2017-12-05T16:07:08.782Z,3.05
2017-12-05T16:16:44.720Z,3.04
2017-12-05T16:26:22.166Z,3.05
2017-12-05T16:35:58.717Z,3.05
2017-12-05T16:45:35.602Z,3.05
2017-12-05T16:55:12.260Z,3.05
2017-12-05T17:04:48.704Z,3.05
2017-12-05T17:14:25.300Z,3.05
2017-12-05T17:24:01.004Z,3.05
2017-12-05T17:33:38.556Z,3.05
2017-12-05T17:43:18.663Z,3.05
2017-12-05T17:52:49.130Z,2.83
2017-12-05T18:02:24.601Z,3.04
2017-12-05T18:12:00.498Z,3.04
2017-12-05T18:21:36.662Z,3.04
2017-12-05T18:31:15.959Z,3.04
2017-12-05T18:40:45.692Z,3.04
2017-12-05T18:50:22.067Z,3.04
2017-12-05T19:00:00.504Z,3.04
2017-12-05T19:09:35.706Z,3.04
2017-12-05T19:19:12.613Z,3.04
2017-12-05T19:28:48.376Z,3.04
2017-12-05T19:38:25.710Z,3.04
2017-12-05T19:48:02.899Z,3.04
2017-12-05T19:57:37.621Z,3.03
2017-12-05T20:07:12.968Z,3.03
2017-12-05T20:16:52.640Z,3.03
2017-12-05T20:26:22.710Z,3.03
2017-12-05T20:35:59.084Z,3.03
2017-12-05T20:45:34.355Z,3.02
2017-12-05T20:55:14.591Z,3.03
2017-12-05T21:04:43.856Z,3.02
2017-12-05T21:14:19.824Z,3.02
2017-12-05T21:23:58.873Z,3.02
2017-12-05T21:33:29.251Z,3.01
2017-12-05T21:43:05.036Z,3.01
2017-12-05T21:52:40.728Z,3.01
2017-12-05T22:02:16.499Z,3.01
2017-12-05T22:11:53.379Z,3.01
2017-12-05T22:21:29.836Z,3.01
2017-12-05T22:31:06.057Z,3.01
2017-12-05T22:40:42.042Z,3.01
2017-12-05T22:50:18.204Z,3.01
2017-12-05T22:59:54.430Z,3.01
2017-12-05T23:09:33.487Z,3.01
2017-12-05T23:19:03.806Z,3.00
2017-12-05T23:28:44.761Z,3.00
2017-12-05T23:38:15.369Z,3.00
2017-12-05T23:47:51.622Z,3.00
2017-12-05T23:57:32.146Z,3.00
